createdAt,value
2022-12-31T00:00:52.191Z,100181.78
2022-12-31T00:03:57.523Z,100176.53
2022-12-31T00:07:02.863Z,100192.94
2022-12-31T00:10:07.938Z,100197.16
2022-12-31T00:13:13.348Z,100204.84
2022-12-31T00:16:28.827Z,100202.78
2022-12-31T00:19:33.282Z,100213.84
2022-12-31T00:22:37.350Z,100204.63
2022-12-31T00:25:41.900Z,100215.09
2022-12-31T00:28:47.186Z,100231.78
2022-12-31T00:31:51.722Z,100239.41
2022-12-31T00:34:55.700Z,100223.75
2022-12-31T00:37:59.636Z,100224.59
2022-12-31T00:41:05.051Z,100235.84
2022-12-31T00:44:12.362Z,100229.00
2022-12-31T00:47:16.891Z,100232.78
2022-12-31T00:50:21.240Z,100240.47
2022-12-31T00:53:25.707Z,100249.28
2022-12-31T00:56:31.781Z,100250.66
2022-12-31T00:59:35.980Z,100259.28
2022-12-31T01:02:40.473Z,100244.97
2022-12-31T01:05:45.225Z,100251.16
2022-12-31T01:08:51.331Z,100254.84
2022-12-31T01:11:55.771Z,100254.09
2022-12-31T01:14:59.715Z,100257.66
2022-12-31T01:18:07.487Z,100260.09
2022-12-31T01:21:13.835Z,100271.38
2022-12-31T01:24:18.660Z,100267.06
2022-12-31T01:27:22.905Z,100270.44
2022-12-31T01:30:27.639Z,100287.88
2022-12-31T01:33:32.052Z,100293.28
2022-12-31T01:36:37.392Z,100289.38
2022-12-31T01:39:41.580Z,100294.63
2022-12-31T01:42:54.183Z,100282.47
2022-12-31T01:45:58.491Z,100278.88
2022-12-31T01:49:27.266Z,100284.03
2022-12-31T01:52:37.403Z,100284.13
2022-12-31T01:55:55.771Z,100282.28
2022-12-31T01:59:00.758Z,100287.44
2022-12-31T02:02:06.385Z,100276.88
2022-12-31T02:05:42.964Z,100268.38
2022-12-31T02:08:48.776Z,100271.78
2022-12-31T02:11:53.948Z,100262.97
2022-12-31T02:14:58.686Z,100266.53
2022-12-31T02:18:26.488Z,100263.94
2022-12-31T02:21:52.669Z,100249.94
2022-12-31T02:25:30.741Z,100245.91
2022-12-31T02:29:28.418Z,100240.06
2022-12-31T02:32:49.885Z,100248.78
2022-12-31T02:36:09.180Z,100253.78
2022-12-31T02:39:14.662Z,100247.59
2022-12-31T02:42:19.293Z,100244.38
2022-12-31T02:45:34.390Z,100250.41
2022-12-31T02:49:05.010Z,100258.44
2022-12-31T02:52:09.125Z,100268.59
2022-12-31T02:55:43.078Z,100265.97
2022-12-31T02:59:43.572Z,100270.59
2022-12-31T03:02:50.146Z,100264.44
2022-12-31T03:05:56.821Z,100256.72
2022-12-31T03:09:14.927Z,100263.69
2022-12-31T03:12:45.767Z,100267.56
2022-12-31T03:15:50.807Z,100267.22
2022-12-31T03:19:14.632Z,100267.31
2022-12-31T03:22:28.228Z,100273.38
2022-12-31T03:25:41.012Z,100263.09
2022-12-31T03:28:47.864Z,100263.00
2022-12-31T03:31:52.814Z,100263.69
2022-12-31T03:34:57.378Z,100247.94
2022-12-31T03:38:03.005Z,100236.78
2022-12-31T03:41:11.088Z,100243.69
2022-12-31T03:44:15.382Z,100255.91
2022-12-31T03:47:19.351Z,100241.75
2022-12-31T03:50:23.412Z,100249.13
2022-12-31T03:53:28.448Z,100244.53
2022-12-31T03:56:32.754Z,100230.66
2022-12-31T03:59:36.846Z,100245.66
2022-12-31T04:02:42.060Z,100242.88
2022-12-31T04:05:54.430Z,100247.28
2022-12-31T04:08:58.448Z,100266.38
2022-12-31T04:12:02.968Z,100253.19
2022-12-31T04:15:08.743Z,100258.44
2022-12-31T04:18:13.270Z,100247.34
2022-12-31T04:21:18.049Z,100257.66
2022-12-31T04:24:22.522Z,100251.47
2022-12-31T04:27:26.813Z,100252.22
2022-12-31T04:30:31.030Z,100259.94
2022-12-31T04:33:35.335Z,100259.19
2022-12-31T04:36:40.060Z,100269.41
2022-12-31T04:39:44.226Z,100266.72
2022-12-31T04:42:48.597Z,100268.38
2022-12-31T04:45:52.903Z,100276.25
2022-12-31T04:48:58.076Z,100286.50
2022-12-31T04:52:02.524Z,100282.88
2022-12-31T04:55:07.299Z,100290.75
2022-12-31T04:58:11.576Z,100292.25
2022-12-31T05:01:16.305Z,100279.03
2022-12-31T05:04:21.795Z,100269.41
2022-12-31T05:07:26.804Z,100263.38
2022-12-31T05:10:31.491Z,100272.13
2022-12-31T05:13:36.099Z,100270.34
2022-12-31T05:16:40.577Z,100266.63
2022-12-31T05:19:45.198Z,100274.66
2022-12-31T05:22:49.257Z,100270.91
2022-12-31T05:25:54.519Z,100265.84
2022-12-31T05:29:00.415Z,100271.16
2022-12-31T05:32:05.401Z,100270.34
2022-12-31T05:35:09.946Z,100271.09
2022-12-31T05:38:14.079Z,100283.28
2022-12-31T05:41:18.514Z,100279.72
2022-12-31T05:44:23.296Z,100286.00
2022-12-31T05:47:27.620Z,100287.16
2022-12-31T05:50:32.082Z,100296.47
2022-12-31T05:53:36.406Z,100293.94
2022-12-31T05:56:40.776Z,100304.28
2022-12-31T05:59:45.049Z,100283.28
2022-12-31T06:02:49.419Z,100287.59
2022-12-31T06:05:53.870Z,100299.03
2022-12-31T06:08:57.892Z,100306.72
2022-12-31T06:12:02.407Z,100329.31
2022-12-31T06:15:08.415Z,100332.78
2022-12-31T06:18:12.857Z,100332.72
2022-12-31T06:21:18.936Z,100347.59
2022-12-31T06:24:23.245Z,100351.16
2022-12-31T06:27:27.582Z,100355.38
2022-12-31T06:30:32.245Z,100355.75
2022-12-31T06:33:36.798Z,100352.34
2022-12-31T06:36:41.181Z,100348.63
2022-12-31T06:39:45.497Z,100331.50
2022-12-31T06:42:53.313Z,100330.84
2022-12-31T06:46:02.091Z,100327.47
2022-12-31T06:49:06.340Z,100324.84
2022-12-31T06:52:10.572Z,100317.97
2022-12-31T06:55:15.928Z,100323.06
2022-12-31T06:58:20.794Z,100317.97
2022-12-31T07:01:49.157Z,100306.91
2022-12-31T07:05:10.111Z,100316.41
2022-12-31T07:08:18.461Z,100316.47
2022-12-31T07:11:31.605Z,100340.16
2022-12-31T07:14:54.538Z,100336.78
2022-12-31T07:18:26.542Z,100342.22
2022-12-31T07:21:36.713Z,100339.41
2022-12-31T07:24:42.776Z,100342.88
2022-12-31T07:28:20.220Z,100349.28
2022-12-31T07:32:05.293Z,100381.47
2022-12-31T07:35:41.890Z,100390.25
2022-12-31T07:39:10.890Z,100389.59
2022-12-31T07:42:32.912Z,100391.25
2022-12-31T07:45:55.367Z,100371.13
2022-12-31T07:49:00.439Z,100364.28
2022-12-31T07:52:05.994Z,100361.47
2022-12-31T07:55:10.980Z,100374.59
2022-12-31T07:58:40.384Z,100371.38
2022-12-31T08:02:04.150Z,100366.72
2022-12-31T08:05:21.198Z,100380.00
2022-12-31T08:08:48.995Z,100368.94
2022-12-31T08:12:02.677Z,100371.47
2022-12-31T08:15:19.102Z,100366.31
2022-12-31T08:18:23.512Z,100377.56
2022-12-31T08:21:39.779Z,100375.88
2022-12-31T08:25:16.936Z,100388.03
2022-12-31T08:28:50.656Z,100389.75
2022-12-31T08:32:18.673Z,100382.97
2022-12-31T08:35:54.558Z,100392.63
2022-12-31T08:39:25.160Z,100379.41
2022-12-31T08:43:15.646Z,100372.47
2022-12-31T08:46:29.675Z,100368.09
2022-12-31T08:49:35.814Z,100361.13
2022-12-31T08:52:40.967Z,100363.09
2022-12-31T08:55:49.745Z,100364.59
2022-12-31T08:59:07.870Z,100383.91
2022-12-31T09:02:33.703Z,100370.78
2022-12-31T09:05:58.722Z,100381.13
2022-12-31T09:09:31.541Z,100386.53
2022-12-31T09:12:55.034Z,100391.41
2022-12-31T09:16:32.165Z,100403.25
2022-12-31T09:19:36.831Z,100395.31
2022-12-31T09:22:41.948Z,100391.94
2022-12-31T09:26:17.151Z,100392.84
2022-12-31T09:29:52.316Z,100409.34
2022-12-31T09:33:51.362Z,100410.97
2022-12-31T09:37:11.040Z,100419.53
2022-12-31T09:40:41.821Z,100396.16
2022-12-31T09:44:23.352Z,100396.06
2022-12-31T09:48:07.582Z,100404.88
2022-12-31T09:51:26.829Z,100399.72
2022-12-31T09:54:51.585Z,100402.75
2022-12-31T09:58:18.851Z,100403.66
2022-12-31T10:02:19.937Z,100403.06
2022-12-31T10:05:39.190Z,100399.84
2022-12-31T10:09:25.642Z,100398.28
2022-12-31T10:13:24.692Z,100376.66
2022-12-31T10:17:06.905Z,100363.63
2022-12-31T10:21:04.276Z,100365.47
2022-12-31T10:24:44.059Z,100357.94
2022-12-31T10:27:59.853Z,100358.00
2022-12-31T10:31:37.724Z,100364.28
2022-12-31T10:34:54.676Z,100357.47
2022-12-31T10:38:21.939Z,100355.81
2022-12-31T10:41:58.801Z,100352.16
2022-12-31T10:45:41.052Z,100335.28
2022-12-31T10:49:22.055Z,100324.09
2022-12-31T10:52:47.072Z,100321.91
2022-12-31T10:56:43.887Z,100320.16
2022-12-31T11:00:19.641Z,100320.69
2022-12-31T11:03:36.186Z,100322.19
2022-12-31T11:06:53.180Z,100327.78
2022-12-31T11:10:21.643Z,100313.75
2022-12-31T11:14:07.661Z,100318.34
2022-12-31T11:17:30.554Z,100315.97
2022-12-31T11:20:49.750Z,100319.19
2022-12-31T11:24:34.793Z,100316.91
2022-12-31T11:28:23.043Z,100306.91
2022-12-31T11:31:54.741Z,100311.53
2022-12-31T11:35:02.143Z,100310.16
2022-12-31T11:38:54.383Z,100314.94
2022-12-31T11:42:38.829Z,100316.09
2022-12-31T11:45:55.686Z,100307.84
2022-12-31T11:49:14.491Z,100306.72
2022-12-31T11:52:44.485Z,100315.00
2022-12-31T11:56:23.103Z,100299.06
2022-12-31T11:59:27.664Z,100309.78
2022-12-31T12:02:40.601Z,100305.56
2022-12-31T12:05:44.993Z,100303.06
2022-12-31T12:08:50.347Z,100299.47
2022-12-31T12:12:05.930Z,100297.81
2022-12-31T12:15:20.807Z,100312.34
2022-12-31T12:18:40.952Z,100314.53
2022-12-31T12:21:47.918Z,100307.19
2022-12-31T12:25:07.907Z,100323.91
2022-12-31T12:28:26.754Z,100306.94
2022-12-31T12:31:34.175Z,100318.09
2022-12-31T12:34:45.912Z,100316.22
2022-12-31T12:38:06.494Z,100332.91
2022-12-31T12:41:25.408Z,100314.50
2022-12-31T12:44:31.555Z,100319.97
2022-12-31T12:47:36.657Z,100305.13
2022-12-31T12:50:45.886Z,100312.34
2022-12-31T12:54:40.315Z,100323.72
2022-12-31T12:57:58.320Z,100310.94
2022-12-31T13:01:23.903Z,100327.09
2022-12-31T13:05:27.728Z,100330.09
2022-12-31T13:08:53.057Z,100326.72
2022-12-31T13:13:22.044Z,100332.06
2022-12-31T13:16:35.309Z,100330.09
2022-12-31T13:20:28.624Z,100349.06
2022-12-31T13:23:53.200Z,100344.44
2022-12-31T13:27:07.665Z,100346.25
2022-12-31T13:30:28.306Z,100345.69
2022-12-31T13:33:45.476Z,100354.78
2022-12-31T13:36:52.932Z,100361.84
2022-12-31T13:40:39.033Z,100370.19
2022-12-31T13:44:04.801Z,100365.56
2022-12-31T13:47:17.251Z,100365.38
2022-12-31T13:50:47.124Z,100369.19
2022-12-31T13:54:01.990Z,100369.91
2022-12-31T13:57:30.489Z,100379.09
2022-12-31T14:00:47.903Z,100386.16
2022-12-31T14:04:52.753Z,100381.00
2022-12-31T14:08:03.046Z,100374.81
2022-12-31T14:11:28.634Z,100388.69
2022-12-31T14:14:43.682Z,100381.19
2022-12-31T14:18:18.242Z,100379.59
2022-12-31T14:22:12.671Z,100379.72
2022-12-31T14:25:37.324Z,100375.28
2022-12-31T14:29:11.041Z,100370.84
2022-12-31T14:32:43.018Z,100364.47
2022-12-31T14:36:36.357Z,100363.91
2022-12-31T14:40:11.320Z,100354.22
2022-12-31T14:43:24.503Z,100364.19
2022-12-31T14:47:05.118Z,100355.41
2022-12-31T14:50:16.846Z,100355.22
2022-12-31T14:53:27.141Z,100349.31
2022-12-31T14:56:45.507Z,100355.13
2022-12-31T14:59:59.117Z,100353.22
2022-12-31T15:03:06.394Z,100350.81
2022-12-31T15:06:23.144Z,100351.25
2022-12-31T15:10:10.423Z,100351.84
2022-12-31T15:13:52.320Z,100348.84
2022-12-31T15:17:25.694Z,100341.31
2022-12-31T15:21:08.743Z,100339.81
2022-12-31T15:24:26.949Z,100347.22
2022-12-31T15:27:34.006Z,100358.81
2022-12-31T15:30:46.362Z,100350.81
2022-12-31T15:34:07.142Z,100352.78
2022-12-31T15:37:35.916Z,100358.81
2022-12-31T15:40:52.516Z,100367.34
2022-12-31T15:44:06.379Z,100368.56
2022-12-31T15:47:27.591Z,100372.34
2022-12-31T15:50:35.675Z,100378.56
2022-12-31T15:53:44.048Z,100382.88
2022-12-31T15:56:49.669Z,100389.19
2022-12-31T16:00:05.668Z,100393.25
2022-12-31T16:03:24.123Z,100405.81
2022-12-31T16:06:34.716Z,100421.34
2022-12-31T16:09:42.362Z,100439.06
2022-12-31T16:12:47.280Z,100451.50
2022-12-31T16:16:00.459Z,100451.34
2022-12-31T16:19:36.232Z,100459.66
2022-12-31T16:22:41.048Z,100468.28
2022-12-31T16:25:46.372Z,100467.66
2022-12-31T16:28:51.496Z,100480.25
2022-12-31T16:31:56.090Z,100469.72
2022-12-31T16:35:00.209Z,100478.63
2022-12-31T16:38:13.432Z,100487.22
2022-12-31T16:41:22.045Z,100481.94
2022-12-31T16:44:29.315Z,100480.25
2022-12-31T16:47:38.196Z,100476.88
2022-12-31T16:50:53.197Z,100475.69
2022-12-31T16:53:58.797Z,100483.03
2022-12-31T16:57:06.352Z,100493.06
2022-12-31T17:00:18.582Z,100497.50
2022-12-31T17:03:27.256Z,100512.63
2022-12-31T17:06:33.494Z,100508.03
2022-12-31T17:09:38.323Z,100523.31
2022-12-31T17:13:27.183Z,100513.72
2022-12-31T17:16:19.045Z,100520.78
2022-12-31T17:19:47.290Z,100501.88
2022-12-31T17:23:08.681Z,100515.22
2022-12-31T17:26:22.188Z,100494.53
2022-12-31T17:29:26.794Z,100493.69
2022-12-31T17:32:37.349Z,100488.59
2022-12-31T17:35:46.723Z,100479.19
2022-12-31T17:38:51.153Z,100475.81
2022-12-31T17:41:58.001Z,100497.94
2022-12-31T17:45:22.178Z,100497.09
2022-12-31T17:48:28.349Z,100499.81
2022-12-31T17:51:32.265Z,100499.16
2022-12-31T17:54:36.559Z,100502.28
2022-12-31T17:57:56.912Z,100517.97
2022-12-31T18:01:05.221Z,100502.34
2022-12-31T18:04:14.388Z,100477.19
2022-12-31T18:07:19.181Z,100471.88
2022-12-31T18:10:24.295Z,100477.38
2022-12-31T18:13:28.935Z,100504.31
2022-12-31T18:16:33.179Z,100502.78
2022-12-31T18:20:03.472Z,100500.16
2022-12-31T18:23:01.740Z,100496.34
2022-12-31T18:26:06.659Z,100503.56
2022-12-31T18:29:17.596Z,100501.78
2022-12-31T18:32:32.810Z,100503.41
2022-12-31T18:39:01.394Z,100492.88
2022-12-31T18:42:06.331Z,100477.13
2022-12-31T18:45:20.056Z,100491.00
2022-12-31T18:48:24.733Z,100491.00
2022-12-31T18:51:32.014Z,100496.19
2022-12-31T18:54:37.046Z,100510.50
2022-12-31T18:57:41.278Z,100509.25
2022-12-31T19:00:47.880Z,100508.28
2022-12-31T19:03:54.017Z,100501.19
2022-12-31T19:06:59.100Z,100481.16
2022-12-31T19:10:03.702Z,100469.97
2022-12-31T19:13:16.197Z,100483.22
2022-12-31T19:16:20.974Z,100471.66
2022-12-31T19:19:26.101Z,100505.25
2022-12-31T19:22:30.465Z,100476.72
2022-12-31T19:25:35.226Z,100512.03
2022-12-31T19:28:39.774Z,100495.31
2022-12-31T19:31:44.710Z,100482.09
2022-12-31T19:34:49.553Z,100497.09
2022-12-31T19:37:55.550Z,100503.19
2022-12-31T19:41:01.617Z,100498.31
2022-12-31T19:44:08.189Z,100456.09
2022-12-31T19:47:13.950Z,100471.16
2022-12-31T19:50:25.311Z,100465.06
2022-12-31T19:53:30.021Z,100463.97
2022-12-31T19:56:34.666Z,100478.63
2022-12-31T19:59:39.172Z,100470.94
2022-12-31T20:02:44.562Z,100482.22
2022-12-31T20:05:49.134Z,100493.31
2022-12-31T20:08:53.404Z,100496.53
2022-12-31T20:11:57.727Z,100505.00
2022-12-31T20:15:02.512Z,100489.75
2022-12-31T20:18:07.040Z,100499.75
2022-12-31T20:21:17.625Z,100498.78
2022-12-31T20:24:22.112Z,100496.75
2022-12-31T20:27:26.466Z,100494.31
2022-12-31T20:30:31.038Z,100490.72
2022-12-31T20:33:36.471Z,100482.66
2022-12-31T20:36:40.712Z,100486.16
2022-12-31T20:39:44.871Z,100483.59
2022-12-31T20:42:48.952Z,100481.16
2022-12-31T20:45:53.402Z,100478.25
2022-12-31T20:49:03.114Z,100473.00
2022-12-31T20:52:07.707Z,100464.50
2022-12-31T20:55:16.937Z,100471.28
2022-12-31T20:58:21.819Z,100480.78
2022-12-31T21:01:36.402Z,100474.66
2022-12-31T21:04:51.028Z,100467.81
2022-12-31T21:07:55.550Z,100466.13
2022-12-31T21:10:59.655Z,100460.28
2022-12-31T21:14:04.453Z,100465.28
2022-12-31T21:17:08.846Z,100458.13
2022-12-31T21:20:14.348Z,100466.13
2022-12-31T21:23:20.482Z,100468.00
2022-12-31T21:26:25.241Z,100466.97
2022-12-31T21:29:34.278Z,100466.13
2022-12-31T21:32:39.391Z,100459.25
2022-12-31T21:35:50.156Z,100454.66
2022-12-31T21:38:57.969Z,100466.88
2022-12-31T21:42:02.219Z,100466.13
2022-12-31T21:45:07.916Z,100467.81
2022-12-31T21:48:21.415Z,100465.75
2022-12-31T21:51:27.316Z,100466.97
2022-12-31T21:54:50.094Z,100467.03
2022-12-31T22:01:49.118Z,100449.41
2022-12-31T22:05:02.426Z,100458.97
2022-12-31T22:08:07.346Z,100460.69
2022-12-31T22:11:13.962Z,100472.50
2022-12-31T22:14:17.877Z,100463.88
2022-12-31T22:17:22.337Z,100462.94
2022-12-31T22:20:27.908Z,100467.44
2022-12-31T22:23:34.714Z,100463.88
2022-12-31T22:26:44.568Z,100464.81
2022-12-31T22:29:51.083Z,100469.13
2022-12-31T22:32:55.654Z,100476.94
2022-12-31T22:36:13.214Z,100482.28
2022-12-31T22:39:43.657Z,100468.03
2022-12-31T22:42:44.868Z,100482.84
2022-12-31T22:45:49.093Z,100487.09
2022-12-31T22:48:57.931Z,100483.81
2022-12-31T22:52:05.718Z,100472.44
2022-12-31T22:55:13.001Z,100489.28
2022-12-31T22:58:19.774Z,100482.50
2022-12-31T23:01:25.480Z,100473.28
2022-12-31T23:04:29.766Z,100459.00
2022-12-31T23:07:34.119Z,100412.94
2022-12-31T23:10:56.568Z,100366.34
2022-12-31T23:14:19.391Z,100339.25
2022-12-31T23:17:45.298Z,100326.78
2022-12-31T23:21:07.763Z,100319.91
2022-12-31T23:24:20.186Z,100311.91
2022-12-31T23:27:27.638Z,100299.16
2022-12-31T23:30:32.659Z,100293.44
2022-12-31T23:33:37.218Z,100284.94
2022-12-31T23:36:41.679Z,100259.38
2022-12-31T23:39:45.699Z,100249.03
2022-12-31T23:42:50.662Z,100232.81
2022-12-31T23:45:54.812Z,100226.72
2022-12-31T23:48:59.085Z,100221.44
2022-12-31T23:52:03.833Z,100217.00
2022-12-31T23:55:09.005Z,100197.91
2022-12-31T23:58:13.253Z,100193.22
